Time;durP1;ratioP1;P1;durP2;ratioP2;P2;SDS_P1;SDS_P2;PMS_P1;PMS_P2;Temp;Humidity;BMP_temperature;BMP_pressure;BME280_temperature;BME280_humidity;BME280_pressure;Samples;Min_cycle;Max_cycle;Signal;HPM_P1;HPM_P2
2022/03/26 00:00:46;;;;;;;12.65;8.50;;;;;;;;;;5047131;28;20071;-48
2022/03/26 00:03:13;;;;;;;12.57;8.50;;;;;;;;;;5047417;28;20041;-47
2022/03/26 00:05:39;;;;;;;16.10;9.30;;;;;;;;;;5045500;28;20542;-49
2022/03/26 00:08:06;;;;;;;12.15;7.97;;;;;;;;;;5046563;28;20032;-48
2022/03/26 00:10:32;;;;;;;14.48;8.77;;;;;;;;;;5046576;28;20123;-48
2022/03/26 00:12:58;;;;;;;11.82;7.85;;;;;;;;;;5046580;28;20090;-47
2022/03/26 00:15:26;;;;;;;13.88;8.93;;;;;;;;;;5043586;28;20036;-48
2022/03/26 00:17:52;;;;;;;13.68;8.10;;;;;;;;;;5046423;28;20442;-48
2022/03/26 00:20:18;;;;;;;13.73;8.43;;;;;;;;;;5046680;28;20052;-46
2022/03/26 00:22:44;;;;;;;13.90;8.20;;;;;;;;;;5046869;28;20037;-48
2022/03/26 00:25:13;;;;;;;13.48;8.10;;;;;;;;;;5044796;28;20033;-49
2022/03/26 00:27:39;;;;;;;16.95;9.57;;;;;;;;;;5046175;28;20056;-48
2022/03/26 00:30:06;;;;;;;12.57;7.95;;;;;;;;;;5046534;28;20452;-51
2022/03/26 00:32:32;;;;;;;12.75;8.07;;;;;;;;;;5046416;28;20029;-51
2022/03/26 00:35:00;;;;;;;11.95;7.57;;;;;;;;;;5044039;28;20105;-49
2022/03/26 00:37:27;;;;;;;12.98;8.13;;;;;;;;;;5044089;28;20392;-48
2022/03/26 00:39:53;;;;;;;12.80;7.88;;;;;;;;;;5045322;28;20033;-49
2022/03/26 00:42:21;;;;;;;13.82;8.45;;;;;;;;;;5046223;28;20052;-47
2022/03/26 00:44:47;;;;;;;12.90;7.72;;;;;;;;;;5045866;28;20013;-48
2022/03/26 00:47:13;;;;;;;13.80;8.77;;;;;;;;;;5030839;28;20108;-48
2022/03/26 00:49:39;;;;;;;12.85;8.05;;;;;;;;;;5025840;28;20025;-48
2022/03/26 00:52:05;;;;;;;12.38;7.93;;;;;;;;;;5025890;28;20033;-49
2022/03/26 00:54:32;;;;;;;11.95;7.15;;;;;;;;;;5025643;28;20543;-49
2022/03/26 00:56:58;;;;;;;11.68;7.40;;;;;;;;;;5025660;28;20041;-47
2022/03/26 00:59:25;;;;;;;11.98;7.55;;;;;;;;;;5025763;28;20028;-47
2022/03/26 01:01:52;;;;;;;12.25;8.02;;;;;;;;;;5033043;28;20035;-47
2022/03/26 01:04:19;;;;;;;10.57;6.72;;;;;;;;;;5065266;28;20035;-48
2022/03/26 01:06:46;;;;;;;11.75;7.20;;;;;;;;;;5049668;28;20139;-49
2022/03/26 01:09:12;;;;;;;10.88;7.30;;;;;;;;;;5026269;28;20470;-50
2022/03/26 01:11:39;;;;;;;12.73;8.13;;;;;;;;;;5025550;28;20480;-49
2022/03/26 01:14:05;;;;;;;12.25;7.47;;;;;;;;;;5025792;28;20104;-49
2022/03/26 01:16:32;;;;;;;10.57;7.22;;;;;;;;;;5036568;28;20043;-46
2022/03/26 01:18:58;;;;;;;12.90;7.97;;;;;;;;;;5044868;28;20025;-47
2022/03/26 01:21:25;;;;;;;10.90;7.28;;;;;;;;;;5044892;28;20029;-50
2022/03/26 01:23:51;;;;;;;10.95;7.25;;;;;;;;;;5044637;28;20078;-46
2022/03/26 01:26:20;;;;;;;12.10;7.53;;;;;;;;;;5034308;28;20381;-46
2022/03/26 01:28:47;;;;;;;13.02;7.75;;;;;;;;;;5025529;28;20025;-47
2022/03/26 01:31:13;;;;;;;13.45;8.48;;;;;;;;;;5025971;28;20036;-47
2022/03/26 01:33:40;;;;;;;13.68;9.10;;;;;;;;;;5024274;28;20021;-50
2022/03/26 01:36:08;;;;;;;15.05;9.30;;;;;;;;;;5032505;28;20052;-50
2022/03/26 01:38:35;;;;;;;11.02;7.28;;;;;;;;;;5044808;28;20024;-47
2022/03/26 01:41:02;;;;;;;13.70;8.02;;;;;;;;;;5044725;28;20401;-48
2022/03/26 01:43:28;;;;;;;12.98;8.43;;;;;;;;;;5043969;28;20029;-51
2022/03/26 01:45:54;;;;;;;13.20;7.70;;;;;;;;;;5030175;28;20040;-48
2022/03/26 01:48:20;;;;;;;13.80;8.85;;;;;;;;;;5043679;28;20590;-50
2022/03/26 01:50:46;;;;;;;13.57;8.57;;;;;;;;;;5044477;28;20488;-50
2022/03/26 01:53:13;;;;;;;11.82;7.32;;;;;;;;;;5045354;28;20098;-50
2022/03/26 01:55:39;;;;;;;14.38;8.32;;;;;;;;;;5043327;28;20041;-49
2022/03/26 01:58:05;;;;;;;12.40;7.60;;;;;;;;;;5044744;28;20442;-48
2022/03/26 02:00:31;;;;;;;13.02;8.35;;;;;;;;;;5045166;28;20025;-47
2022/03/26 02:02:58;;;;;;;13.23;7.88;;;;;;;;;;5044580;28;20108;-50
2022/03/26 02:05:25;;;;;;;13.23;8.60;;;;;;;;;;5043778;28;20220;-47
2022/03/26 02:07:52;;;;;;;13.13;8.75;;;;;;;;;;5044257;28;20029;-49
2022/03/26 02:10:19;;;;;;;13.05;8.57;;;;;;;;;;5044507;28;20541;-48
2022/03/26 02:12:47;;;;;;;14.80;8.93;;;;;;;;;;5044758;28;20021;-50
2022/03/26 02:15:13;;;;;;;14.13;8.70;;;;;;;;;;5044678;28;20440;-50
2022/03/26 02:17:39;;;;;;;13.32;8.70;;;;;;;;;;5023984;28;20515;-49
2022/03/26 02:20:07;;;;;;;15.82;9.25;;;;;;;;;;5025096;28;20447;-46
2022/03/26 02:22:33;;;;;;;14.27;8.73;;;;;;;;;;5029873;28;20021;-48
2022/03/26 02:24:59;;;;;;;16.58;8.85;;;;;;;;;;5044322;28;20418;-50
2022/03/26 02:27:26;;;;;;;16.13;9.35;;;;;;;;;;5044262;28;20021;-51
2022/03/26 02:29:53;;;;;;;15.05;9.75;;;;;;;;;;5044222;28;20041;-47
2022/03/26 02:32:20;;;;;;;15.18;9.38;;;;;;;;;;5042724;28;20033;-51
2022/03/26 02:34:47;;;;;;;13.88;9.65;;;;;;;;;;5044748;28;20048;-46
2022/03/26 02:37:13;;;;;;;14.88;9.32;;;;;;;;;;5044419;28;20037;-49
2022/03/26 02:39:39;;;;;;;14.52;9.75;;;;;;;;;;5044432;28;20032;-49
2022/03/26 02:42:05;;;;;;;14.57;9.45;;;;;;;;;;5042366;28;20029;-47
2022/03/26 02:44:33;;;;;;;14.52;9.50;;;;;;;;;;5025462;28;20041;-50
2022/03/26 02:46:59;;;;;;;11.95;8.25;;;;;;;;;;5022347;28;20116;-48
2022/03/26 02:49:26;;;;;;;13.90;8.60;;;;;;;;;;5024460;28;20033;-48
2022/03/26 02:51:52;;;;;;;12.35;8.25;;;;;;;;;;5035149;28;20055;-46
2022/03/26 02:54:21;;;;;;;14.90;8.40;;;;;;;;;;5044318;28;20036;-47
2022/03/26 02:56:48;;;;;;;11.07;7.30;;;;;;;;;;5044043;28;20017;-48
2022/03/26 02:59:15;;;;;;;13.35;8.23;;;;;;;;;;5044926;28;20299;-49
2022/03/26 03:01:41;;;;;;;12.75;8.05;;;;;;;;;;5042715;28;20033;-49
2022/03/26 03:04:07;;;;;;;12.20;7.82;;;;;;;;;;5033812;28;20036;-50
2022/03/26 03:06:34;;;;;;;12.57;8.00;;;;;;;;;;5043906;28;20039;-48
2022/03/26 03:09:01;;;;;;;12.75;7.45;;;;;;;;;;5043799;28;20041;-47
2022/03/26 03:11:28;;;;;;;13.55;7.80;;;;;;;;;;5044034;28;20504;-47
2022/03/26 03:13:55;;;;;;;12.35;7.55;;;;;;;;;;5040988;28;20071;-49
2022/03/26 03:16:21;;;;;;;11.70;7.57;;;;;;;;;;5023882;28;20104;-49
2022/03/26 03:18:47;;;;;;;12.77;7.50;;;;;;;;;;5024143;28;20025;-48
2022/03/26 03:21:14;;;;;;;12.70;7.53;;;;;;;;;;5024623;28;20029;-46
2022/03/26 03:23:41;;;;;;;12.65;7.80;;;;;;;;;;5026046;28;20091;-46
2022/03/26 03:26:07;;;;;;;14.50;9.40;;;;;;;;;;5045053;28;20033;-49
2022/03/26 03:28:33;;;;;;;12.52;8.32;;;;;;;;;;5030312;28;20442;-48
2022/03/26 03:30:59;;;;;;;13.65;9.10;;;;;;;;;;5047414;28;20033;-48
2022/03/26 03:33:26;;;;;;;12.68;8.68;;;;;;;;;;5046187;28;20029;-50
2022/03/26 03:35:53;;;;;;;11.65;7.75;;;;;;;;;;5027534;28;20247;-50
2022/03/26 03:38:19;;;;;;;12.57;8.30;;;;;;;;;;5027351;28;20331;-47
2022/03/26 03:40:46;;;;;;;11.60;7.85;;;;;;;;;;5027871;28;20021;-47
2022/03/26 03:43:12;;;;;;;11.18;7.57;;;;;;;;;;5028206;28;20080;-47
2022/03/26 03:45:38;;;;;;;11.85;8.00;;;;;;;;;;5040548;28;20090;-50
2022/03/26 03:48:04;;;;;;;15.18;8.95;;;;;;;;;;5047188;28;20086;-48
2022/03/26 03:50:30;;;;;;;14.00;8.23;;;;;;;;;;5046965;28;20056;-47
2022/03/26 03:52:56;;;;;;;12.88;8.02;;;;;;;;;;5046848;28;20528;-49
2022/03/26 03:55:24;;;;;;;12.38;7.63;;;;;;;;;;5032687;28;20057;-49
2022/03/26 03:57:50;;;;;;;10.50;6.90;;;;;;;;;;5026939;28;20025;-47
2022/03/26 04:00:16;;;;;;;12.57;7.45;;;;;;;;;;5027317;28;20021;-45
2022/03/26 04:02:43;;;;;;;10.50;7.22;;;;;;;;;;5027434;28;20029;-49
2022/03/26 04:05:10;;;;;;;12.38;7.13;;;;;;;;;;5040212;28;20222;-49
2022/03/26 04:07:38;;;;;;;11.30;7.38;;;;;;;;;;5046875;28;20033;-48
2022/03/26 04:10:07;;;;;;;9.57;6.43;;;;;;;;;;5046730;28;20118;-49
2022/03/26 04:12:33;;;;;;;10.65;6.90;;;;;;;;;;5028842;28;20042;-46
2022/03/26 04:14:59;;;;;;;11.40;7.10;;;;;;;;;;5038300;28;20036;-49
2022/03/26 04:17:26;;;;;;;10.05;6.60;;;;;;;;;;5045134;28;20813;-49
2022/03/26 04:19:53;;;;;;;11.02;7.30;;;;;;;;;;5046650;28;20094;-49
2022/03/26 04:22:19;;;;;;;11.23;7.18;;;;;;;;;;5046565;28;20020;-48
2022/03/26 04:24:45;;;;;;;11.93;6.80;;;;;;;;;;5046036;28;20033;-47
2022/03/26 04:27:11;;;;;;;12.00;7.25;;;;;;;;;;5047238;28;20079;-50
2022/03/26 04:29:37;;;;;;;11.60;7.47;;;;;;;;;;5046410;28;20468;-49
2022/03/26 04:32:04;;;;;;;9.52;5.95;;;;;;;;;;5046177;28;20040;-49
2022/03/26 04:34:30;;;;;;;12.00;6.95;;;;;;;;;;5037574;28;20493;-47
2022/03/26 04:36:57;;;;;;;13.13;8.13;;;;;;;;;;5026004;28;20025;-47
2022/03/26 04:39:23;;;;;;;11.38;7.45;;;;;;;;;;5026310;28;20025;-50
2022/03/26 04:41:49;;;;;;;12.05;7.43;;;;;;;;;;5026231;28;20104;-48
2022/03/26 04:44:15;;;;;;;12.35;7.35;;;;;;;;;;5028215;28;20025;-49
2022/03/26 04:46:41;;;;;;;9.88;6.65;;;;;;;;;;5026274;28;20472;-49
2022/03/26 04:49:08;;;;;;;12.05;7.25;;;;;;;;;;5026532;28;20036;-50
2022/03/26 04:51:34;;;;;;;11.15;6.80;;;;;;;;;;5024406;28;20519;-50
2022/03/26 04:54:00;;;;;;;11.13;6.78;;;;;;;;;;5030655;28;20029;-46
2022/03/26 04:56:26;;;;;;;11.52;7.07;;;;;;;;;;5045857;28;20060;-47
2022/03/26 04:58:55;;;;;;;11.57;7.05;;;;;;;;;;5045760;28;20029;-51
2022/03/26 05:01:22;;;;;;;12.27;7.05;;;;;;;;;;5035916;28;20099;-49
2022/03/26 05:03:48;;;;;;;12.50;7.40;;;;;;;;;;5025660;28;20057;-46
2022/03/26 05:06:15;;;;;;;12.20;6.95;;;;;;;;;;5025936;28;20057;-48
2022/03/26 05:08:41;;;;;;;10.52;6.93;;;;;;;;;;5032831;28;20025;-47
2022/03/26 05:11:07;;;;;;;12.15;7.32;;;;;;;;;;5040091;28;20045;-50
2022/03/26 05:13:33;;;;;;;13.10;8.13;;;;;;;;;;5045685;28;20107;-49
2022/03/26 05:16:00;;;;;;;13.20;7.93;;;;;;;;;;5033528;28;20575;-49
2022/03/26 05:18:26;;;;;;;12.68;8.07;;;;;;;;;;5045327;28;20108;-47
2022/03/26 05:20:56;;;;;;;13.55;8.30;;;;;;;;;;5045262;28;20033;-48
2022/03/26 05:23:22;;;;;;;13.27;8.35;;;;;;;;;;5045465;28;20024;-49
2022/03/26 05:25:48;;;;;;;14.07;8.20;;;;;;;;;;5044559;28;20039;-49
2022/03/26 05:28:14;;;;;;;12.43;7.78;;;;;;;;;;5045419;28;20442;-48
2022/03/26 05:30:40;;;;;;;12.85;7.97;;;;;;;;;;5043591;28;20040;-46
2022/03/26 05:33:06;;;;;;;12.07;7.15;;;;;;;;;;5045761;28;20086;-48
2022/03/26 05:35:32;;;;;;;11.50;7.10;;;;;;;;;;5044844;28;20118;-46
2022/03/26 05:37:59;;;;;;;12.02;7.03;;;;;;;;;;5026685;28;20057;-47
2022/03/26 05:40:26;;;;;;;12.57;7.43;;;;;;;;;;5025323;28;20110;-49
2022/03/26 05:42:53;;;;;;;10.77;7.32;;;;;;;;;;5025244;28;20037;-45
2022/03/26 05:45:19;;;;;;;12.43;7.93;;;;;;;;;;5024948;28;20048;-46
2022/03/26 05:47:51;;;;;;;14.90;8.95;;;;;;;;;;5023821;28;20025;-49
2022/03/26 05:50:17;;;;;;;14.90;9.02;;;;;;;;;;5033393;28;20656;-48
2022/03/26 05:52:43;;;;;;;14.18;8.35;;;;;;;;;;5045135;28;20075;-46
2022/03/26 05:55:11;;;;;;;13.85;7.35;;;;;;;;;;5044839;28;20438;-50
2022/03/26 05:57:37;;;;;;;14.00;8.40;;;;;;;;;;5044487;28;20488;-48
2022/03/26 06:00:04;;;;;;;13.40;7.80;;;;;;;;;;5043177;28;20111;-46
2022/03/26 06:02:30;;;;;;;13.35;7.93;;;;;;;;;;5044510;28;20024;-48
2022/03/26 06:04:56;;;;;;;11.15;7.25;;;;;;;;;;5044877;28;20431;-46
2022/03/26 06:07:22;;;;;;;12.32;7.65;;;;;;;;;;5044763;28;20056;-49
2022/03/26 06:09:48;;;;;;;11.27;7.10;;;;;;;;;;5041990;28;20032;-49
2022/03/26 06:12:14;;;;;;;12.27;7.07;;;;;;;;;;5045334;28;20078;-49
2022/03/26 06:14:40;;;;;;;13.73;7.82;;;;;;;;;;5044337;28;20539;-46
2022/03/26 06:17:06;;;;;;;13.00;7.95;;;;;;;;;;5044519;28;20467;-46
2022/03/26 06:19:32;;;;;;;15.15;8.43;;;;;;;;;;5044615;28;20028;-49
2022/03/26 06:21:58;;;;;;;14.68;9.50;;;;;;;;;;5043689;28;20078;-50
2022/03/26 06:24:25;;;;;;;15.10;9.20;;;;;;;;;;5044789;28;20490;-47
2022/03/26 06:26:51;;;;;;;13.35;8.77;;;;;;;;;;5044140;28;20033;-50
2022/03/26 06:29:17;;;;;;;13.13;8.32;;;;;;;;;;5044331;28;20029;-48
2022/03/26 06:31:43;;;;;;;14.32;9.57;;;;;;;;;;5040709;28;20033;-46
2022/03/26 06:34:09;;;;;;;16.45;9.32;;;;;;;;;;5026655;28;20037;-50
2022/03/26 06:36:35;;;;;;;17.17;10.10;;;;;;;;;;5037174;28;20068;-49
2022/03/26 06:39:03;;;;;;;14.80;8.95;;;;;;;;;;5044310;28;20504;-48
2022/03/26 06:41:29;;;;;;;15.75;9.73;;;;;;;;;;5044139;28;20033;-49
2022/03/26 06:43:55;;;;;;;16.20;9.38;;;;;;;;;;5044037;28;20017;-48
2022/03/26 06:46:21;;;;;;;16.67;9.70;;;;;;;;;;5043117;28;20033;-49
2022/03/26 06:48:47;;;;;;;14.75;9.63;;;;;;;;;;5044202;28;20061;-48
2022/03/26 06:51:13;;;;;;;15.38;9.40;;;;;;;;;;5043918;28;20173;-45
2022/03/26 06:53:39;;;;;;;15.20;9.55;;;;;;;;;;5044165;28;20029;-46
2022/03/26 06:56:06;;;;;;;16.30;10.40;;;;;;;;;;5042972;28;20108;-47
2022/03/26 06:58:33;;;;;;;16.48;10.18;;;;;;;;;;5043399;28;20033;-49
2022/03/26 07:00:59;;;;;;;14.10;9.40;;;;;;;;;;5040194;28;20024;-49
2022/03/26 07:03:25;;;;;;;14.95;9.63;;;;;;;;;;5048035;28;20029;-50
2022/03/26 07:05:51;;;;;;;15.52;9.40;;;;;;;;;;5040608;28;20021;-49
2022/03/26 07:08:18;;;;;;;15.70;9.65;;;;;;;;;;5035479;28;20026;-46
2022/03/26 07:10:45;;;;;;;16.15;9.23;;;;;;;;;;5041233;28;20423;-47
2022/03/26 07:13:12;;;;;;;16.42;9.00;;;;;;;;;;5035800;28;20038;-48
2022/03/26 07:15:39;;;;;;;14.30;9.20;;;;;;;;;;5033841;28;20053;-48
2022/03/26 07:18:05;;;;;;;11.35;7.97;;;;;;;;;;5038233;28;20103;-47
2022/03/26 07:20:31;;;;;;;12.68;8.65;;;;;;;;;;5034083;28;20033;-47
2022/03/26 07:22:57;;;;;;;12.32;8.07;;;;;;;;;;5032479;28;20075;-47
2022/03/26 07:25:24;;;;;;;12.75;7.97;;;;;;;;;;5028917;28;20025;-50
2022/03/26 07:27:50;;;;;;;12.88;7.70;;;;;;;;;;5041427;28;20068;-50
2022/03/26 07:30:16;;;;;;;12.40;7.75;;;;;;;;;;5048472;28;20021;-50
2022/03/26 07:32:42;;;;;;;11.75;7.57;;;;;;;;;;5048639;28;20036;-47
2022/03/26 07:35:09;;;;;;;11.85;7.70;;;;;;;;;;5048973;28;20017;-48
2022/03/26 07:37:35;;;;;;;12.68;7.78;;;;;;;;;;5048548;28;20053;-47
2022/03/26 07:40:01;;;;;;;11.43;7.47;;;;;;;;;;5042975;28;20024;-49
2022/03/26 07:42:28;;;;;;;13.68;8.00;;;;;;;;;;5041077;28;20071;-47
2022/03/26 07:44:54;;;;;;;12.07;7.75;;;;;;;;;;5048882;28;20035;-48
2022/03/26 07:47:20;;;;;;;11.38;7.47;;;;;;;;;;5048611;28;20044;-51
2022/03/26 07:49:47;;;;;;;11.57;7.53;;;;;;;;;;5042176;28;20442;-51
2022/03/26 07:52:13;;;;;;;12.45;8.07;;;;;;;;;;5040003;28;20032;-49
2022/03/26 07:54:39;;;;;;;9.25;6.88;;;;;;;;;;5029088;28;20033;-47
2022/03/26 07:57:06;;;;;;;10.07;6.97;;;;;;;;;;5026829;28;20523;-49
2022/03/26 07:59:32;;;;;;;11.18;6.97;;;;;;;;;;5038201;28;20029;-47
2022/03/26 08:01:58;;;;;;;10.80;7.18;;;;;;;;;;5047926;28;20076;-50
2022/03/26 08:04:25;;;;;;;9.73;7.10;;;;;;;;;;5047075;28;20024;-50
2022/03/26 08:06:51;;;;;;;9.73;7.00;;;;;;;;;;5046386;28;20124;-48
2022/03/26 08:09:17;;;;;;;9.60;6.75;;;;;;;;;;5047088;28;20196;-49
2022/03/26 08:11:45;;;;;;;10.48;7.13;;;;;;;;;;5045753;28;20103;-51
2022/03/26 08:14:11;;;;;;;10.35;6.93;;;;;;;;;;5046638;28;20108;-47
2022/03/26 08:16:38;;;;;;;10.30;7.18;;;;;;;;;;5043821;28;20167;-48
2022/03/26 08:19:04;;;;;;;10.38;7.03;;;;;;;;;;5026952;28;20033;-48
2022/03/26 08:21:32;;;;;;;8.93;6.35;;;;;;;;;;5027013;28;20072;-47
2022/03/26 08:23:59;;;;;;;10.73;7.15;;;;;;;;;;5027164;28;20025;-47
2022/03/26 08:26:29;;;;;;;10.32;6.95;;;;;;;;;;5032825;28;20037;-47
2022/03/26 08:28:56;;;;;;;9.65;6.18;;;;;;;;;;5028832;28;20032;-48
2022/03/26 08:31:23;;;;;;;9.60;5.97;;;;;;;;;;5034008;28;20032;-48
2022/03/26 08:33:50;;;;;;;9.15;6.22;;;;;;;;;;5038145;28;20094;-46
2022/03/26 08:36:17;;;;;;;9.13;6.00;;;;;;;;;;5035124;28;20030;-48
2022/03/26 08:38:45;;;;;;;9.15;6.30;;;;;;;;;;5026293;28;20037;-48
2022/03/26 08:41:21;;;;;;;8.93;5.82;;;;;;;;;;5041863;28;20035;-47
2022/03/26 08:43:50;;;;;;;10.00;6.07;;;;;;;;;;5042293;28;20021;-46
2022/03/26 08:46:16;;;;;;;8.90;5.22;;;;;;;;;;5027384;28;20029;-48
2022/03/26 08:48:42;;;;;;;10.77;6.03;;;;;;;;;;5026841;28;20051;-47
2022/03/26 08:51:09;;;;;;;8.30;5.50;;;;;;;;;;5027187;28;20493;-46
2022/03/26 08:53:35;;;;;;;9.85;6.28;;;;;;;;;;5038633;28;20021;-50
2022/03/26 08:56:04;;;;;;;11.40;6.93;;;;;;;;;;5034613;28;20356;-46
2022/03/26 08:58:30;;;;;;;11.02;6.75;;;;;;;;;;5037805;28;20017;-51
2022/03/26 09:00:56;;;;;;;11.82;6.72;;;;;;;;;;5037915;28;20025;-47
2022/03/26 09:03:22;;;;;;;10.63;6.43;;;;;;;;;;5040354;28;20108;-49
2022/03/26 09:05:50;;;;;;;9.82;6.18;;;;;;;;;;5045457;28;20060;-46
2022/03/26 09:08:16;;;;;;;9.50;5.88;;;;;;;;;;5032360;28;20076;-46
2022/03/26 09:10:43;;;;;;;11.63;6.75;;;;;;;;;;5035004;28;20128;-47
2022/03/26 09:13:10;;;;;;;11.10;6.40;;;;;;;;;;5035813;28;20029;-50
2022/03/26 09:15:36;;;;;;;10.57;6.22;;;;;;;;;;5039430;28;20047;-47
2022/03/26 09:18:04;;;;;;;10.32;6.72;;;;;;;;;;5046488;28;20061;-46
2022/03/26 09:20:30;;;;;;;10.02;5.90;;;;;;;;;;5040881;28;20017;-48
2022/03/26 09:22:57;;;;;;;8.23;5.25;;;;;;;;;;5031021;28;20020;-49
2022/03/26 09:25:23;;;;;;;7.97;5.30;;;;;;;;;;5046347;28;20025;-47
2022/03/26 09:27:50;;;;;;;8.30;5.45;;;;;;;;;;5033642;28;20104;-48
2022/03/26 09:30:16;;;;;;;10.52;6.13;;;;;;;;;;5026808;28;20474;-46
2022/03/26 09:32:46;;;;;;;8.30;5.45;;;;;;;;;;5029192;28;20041;-48
2022/03/26 09:35:13;;;;;;;9.10;5.75;;;;;;;;;;5040972;28;20033;-50
2022/03/26 09:37:40;;;;;;;9.02;5.63;;;;;;;;;;5035339;28;20044;-48
2022/03/26 09:40:07;;;;;;;7.97;5.03;;;;;;;;;;5030930;28;20040;-47
2022/03/26 09:42:36;;;;;;;9.43;5.93;;;;;;;;;;5039500;28;20036;-47
2022/03/26 09:45:05;;;;;;;8.00;5.47;;;;;;;;;;5027625;28;20153;-50
2022/03/26 09:47:32;;;;;;;7.30;5.00;;;;;;;;;;5027432;28;20044;-51
2022/03/26 09:49:59;;;;;;;8.20;4.97;;;;;;;;;;5027990;28;20523;-47
2022/03/26 09:52:25;;;;;;;10.30;6.35;;;;;;;;;;5027147;28;20061;-47
2022/03/26 09:54:52;;;;;;;12.27;7.35;;;;;;;;;;5026802;28;20033;-46
2022/03/26 09:57:18;;;;;;;9.95;6.05;;;;;;;;;;5033431;28;20107;-49
2022/03/26 09:59:44;;;;;;;9.23;6.43;;;;;;;;;;5058567;28;20453;-48
2022/03/26 10:02:10;;;;;;;11.23;7.20;;;;;;;;;;5048957;28;20079;-49
2022/03/26 10:04:41;;;;;;;10.38;6.38;;;;;;;;;;5025786;28;20078;-51
2022/03/26 10:07:08;;;;;;;8.13;5.38;;;;;;;;;;5032743;28;20052;-50
2022/03/26 10:09:46;;;;;;;8.90;5.53;;;;;;;;;;5034520;28;20048;-48
2022/03/26 10:12:15;;;;;;;10.80;6.80;;;;;;;;;;5047263;28;20454;-51
2022/03/26 10:14:43;;;;;;;10.25;6.10;;;;;;;;;;5058037;28;20527;-47
2022/03/26 10:17:12;;;;;;;9.50;5.70;;;;;;;;;;5065693;28;20476;-51
2022/03/26 10:19:42;;;;;;;10.07;6.13;;;;;;;;;;5060643;28;20414;-50
2022/03/26 10:22:13;;;;;;;6.82;4.78;;;;;;;;;;5038650;28;20071;-48
2022/03/26 10:24:43;;;;;;;6.25;4.22;;;;;;;;;;5025530;28;20024;-51
2022/03/26 10:27:12;;;;;;;6.90;4.38;;;;;;;;;;5025516;28;20037;-47
2022/03/26 10:29:52;;;;;;;6.07;4.38;;;;;;;;;;5024869;28;20506;-49
2022/03/26 10:32:39;;;;;;;6.18;4.28;;;;;;;;;;5030645;28;20029;-47
2022/03/26 10:35:12;;;;;;;5.80;3.85;;;;;;;;;;5041091;28;20408;-47
2022/03/26 10:38:05;;;;;;;6.70;3.80;;;;;;;;;;5038346;28;20038;-47
2022/03/26 10:40:34;;;;;;;5.55;3.83;;;;;;;;;;5033720;28;20124;-48
2022/03/26 10:43:05;;;;;;;6.00;4.00;;;;;;;;;;5031338;28;20389;-51
2022/03/26 10:45:33;;;;;;;6.60;4.28;;;;;;;;;;5030898;28;20033;-48
2022/03/26 10:48:00;;;;;;;7.07;3.80;;;;;;;;;;5031515;28;20485;-49
2022/03/26 10:50:27;;;;;;;6.35;4.43;;;;;;;;;;5030802;28;20493;-49
2022/03/26 10:52:54;;;;;;;6.22;4.22;;;;;;;;;;5045672;28;20041;-50
2022/03/26 10:55:21;;;;;;;4.90;3.35;;;;;;;;;;5049150;28;20029;-50
2022/03/26 10:57:48;;;;;;;7.22;4.65;;;;;;;;;;5043755;28;20383;-49
2022/03/26 11:00:15;;;;;;;6.78;3.97;;;;;;;;;;5031690;28;20036;-47
2022/03/26 11:02:41;;;;;;;6.05;4.07;;;;;;;;;;5041425;28;20512;-50
2022/03/26 11:05:08;;;;;;;6.22;3.88;;;;;;;;;;5049137;28;20029;-49
2022/03/26 11:07:36;;;;;;;4.97;3.60;;;;;;;;;;5047470;28;20025;-49
2022/03/26 11:10:05;;;;;;;6.55;4.50;;;;;;;;;;5042226;28;20037;-48
2022/03/26 11:12:32;;;;;;;5.97;4.40;;;;;;;;;;5041422;28;20040;-51
2022/03/26 11:14:58;;;;;;;5.97;4.03;;;;;;;;;;5050938;28;20040;-49
2022/03/26 11:17:25;;;;;;;7.68;5.20;;;;;;;;;;5050133;28;20123;-50
2022/03/26 11:20:01;;;;;;;7.63;5.07;;;;;;;;;;5048470;28;20031;-50
2022/03/26 11:22:42;;;;;;;6.45;4.97;;;;;;;;;;5049064;28;20052;-51
2022/03/26 11:25:15;;;;;;;7.47;5.07;;;;;;;;;;5045475;28;20025;-49
2022/03/26 11:27:41;;;;;;;5.95;4.40;;;;;;;;;;5049593;28;20083;-50
2022/03/26 11:30:26;;;;;;;7.97;5.28;;;;;;;;;;5045585;28;20037;-52
2022/03/26 11:32:55;;;;;;;;;;;;;;;;;;5038714;28;20041;-48
2022/03/26 11:35:21;;;;;;;7.90;5.50;;;;;;;;;;5042438;28;19912;-50
2022/03/26 11:37:52;;;;;;;8.15;6.00;;;;;;;;;;5048378;28;20083;-51
2022/03/26 11:40:51;;;;;;;9.63;6.65;;;;;;;;;;5028742;28;20115;-49
2022/03/26 11:43:19;;;;;;;6.78;5.00;;;;;;;;;;5024205;28;20043;-47
2022/03/26 11:51:23;;;;;;;4.95;3.53;;;;;;;;;;5048518;28;20044;-47
2022/03/26 11:53:56;;;;;;;3.85;2.90;;;;;;;;;;5048286;28;20044;-49
2022/03/26 11:56:24;;;;;;;4.07;2.92;;;;;;;;;;5037943;28;20037;-48
2022/03/26 11:59:08;;;;;;;3.65;2.85;;;;;;;;;;5027952;28;20036;-48
2022/03/26 12:01:38;;;;;;;5.32;3.70;;;;;;;;;;5031734;28;20029;-48
2022/03/26 12:04:18;;;;;;;5.28;3.45;;;;;;;;;;5048289;28;20119;-48
2022/03/26 12:06:47;;;;;;;9.48;6.47;;;;;;;;;;5046463;28;20494;-49
2022/03/26 12:09:29;;;;;;;7.78;5.45;;;;;;;;;;5048608;28;20041;-48
2022/03/26 12:12:10;;;;;;;5.22;4.15;;;;;;;;;;5048702;28;20029;-50
2022/03/26 12:14:56;;;;;;;8.18;5.10;;;;;;;;;;5048819;28;20135;-48
2022/03/26 12:17:41;;;;;;;6.82;4.70;;;;;;;;;;5047181;28;20048;-48
2022/03/26 12:20:27;;;;;;;7.82;5.45;;;;;;;;;;5048965;28;20029;-47
2022/03/26 12:23:03;;;;;;;6.20;4.55;;;;;;;;;;5048751;28;20057;-50
2022/03/26 12:25:50;;;;;;;8.07;5.75;;;;;;;;;;5049050;28;20465;-53
2022/03/26 12:28:17;;;;;;;8.05;5.68;;;;;;;;;;5047561;28;20051;-48
2022/03/26 12:30:45;;;;;;;8.82;5.35;;;;;;;;;;5048226;28;20032;-47
2022/03/26 12:33:12;;;;;;;9.40;5.70;;;;;;;;;;5048931;28;20025;-50
2022/03/26 12:35:38;;;;;;;8.38;5.85;;;;;;;;;;5051803;28;20048;-48
2022/03/26 12:38:05;;;;;;;12.55;8.02;;;;;;;;;;5049713;28;20099;-48
2022/03/26 12:40:32;;;;;;;12.15;7.95;;;;;;;;;;5038511;28;20115;-47
2022/03/26 12:42:58;;;;;;;13.77;8.80;;;;;;;;;;5047414;28;20510;-47
2022/03/26 12:45:25;;;;;;;9.48;7.00;;;;;;;;;;5034938;28;20036;-51
2022/03/26 12:47:51;;;;;;;9.00;6.50;;;;;;;;;;5037248;28;20024;-47
2022/03/26 12:50:18;;;;;;;9.45;6.60;;;;;;;;;;5040307;28;20029;-47
2022/03/26 12:52:44;;;;;;;8.13;5.80;;;;;;;;;;5037806;28;20029;-48
2022/03/26 12:55:11;;;;;;;8.27;5.80;;;;;;;;;;5047131;28;20052;-48
2022/03/26 13:00:27;;;;;;;6.82;5.05;;;;;;;;;;5026998;28;20053;-48
2022/03/26 13:03:11;;;;;;;6.90;5.13;;;;;;;;;;5026278;28;20017;-48
2022/03/26 13:05:39;;;;;;;12.10;8.60;;;;;;;;;;5026728;28;20026;-52
2022/03/26 13:08:05;;;;;;;10.68;7.65;;;;;;;;;;5026880;28;20025;-48
2022/03/26 13:10:32;;;;;;;9.23;6.47;;;;;;;;;;5026725;28;20511;-51
2022/03/26 13:12:59;;;;;;;9.82;6.38;;;;;;;;;;5027537;28;20493;-51
2022/03/26 13:15:25;;;;;;;8.95;6.57;;;;;;;;;;5026664;28;20025;-52
2022/03/26 13:17:51;;;;;;;11.45;7.88;;;;;;;;;;5026413;28;20013;-47
2022/03/26 13:20:28;;;;;;;12.05;7.82;;;;;;;;;;5043207;28;20032;-48
2022/03/26 13:22:58;;;;;;;13.35;8.77;;;;;;;;;;5046403;28;20033;-48
2022/03/26 13:25:24;;;;;;;12.15;8.15;;;;;;;;;;5046562;28;20108;-48
2022/03/26 13:27:50;;;;;;;11.85;7.60;;;;;;;;;;5046245;28;20146;-50
2022/03/26 13:30:18;;;;;;;9.43;6.60;;;;;;;;;;5046772;28;20480;-52
2022/03/26 13:32:45;;;;;;;8.80;6.10;;;;;;;;;;5046164;28;20537;-49
2022/03/26 13:35:13;;;;;;;8.68;5.97;;;;;;;;;;5046574;28;20116;-49
2022/03/26 13:37:45;;;;;;;8.52;5.88;;;;;;;;;;5045883;28;20036;-52
2022/03/26 13:40:12;;;;;;;8.93;6.00;;;;;;;;;;5045161;28;20033;-52
2022/03/26 13:42:43;;;;;;;7.45;5.60;;;;;;;;;;5023635;28;20025;-48
2022/03/26 13:45:10;;;;;;;10.68;7.47;;;;;;;;;;5052816;28;20036;-50
2022/03/26 13:47:36;;;;;;;12.52;8.30;;;;;;;;;;5065379;28;20495;-52
2022/03/26 13:50:07;;;;;;;12.48;8.68;;;;;;;;;;5066029;28;20036;-48
2022/03/26 13:52:34;;;;;;;12.05;7.88;;;;;;;;;;5065388;28;20477;-51
2022/03/26 13:55:01;;;;;;;10.88;8.10;;;;;;;;;;5066147;28;20085;-49
2022/03/26 13:57:35;;;;;;;10.77;7.85;;;;;;;;;;5050751;28;20504;-51
2022/03/26 14:00:08;;;;;;;13.40;8.95;;;;;;;;;;5045223;28;20400;-52
2022/03/26 14:02:38;;;;;;;12.75;7.95;;;;;;;;;;5045754;28;20404;-50
2022/03/26 14:05:05;;;;;;;10.65;7.72;;;;;;;;;;5046078;28;20037;-52
2022/03/26 14:07:31;;;;;;;9.82;7.10;;;;;;;;;;5046541;28;20025;-49
2022/03/26 14:09:57;;;;;;;8.70;6.22;;;;;;;;;;5045213;28;20454;-50
2022/03/26 14:12:23;;;;;;;9.43;6.65;;;;;;;;;;5046017;28;20043;-50
2022/03/26 14:14:49;;;;;;;11.80;8.20;;;;;;;;;;5045609;28;20025;-48
2022/03/26 14:17:15;;;;;;;10.73;7.55;;;;;;;;;;5045550;28;20028;-51
2022/03/26 14:19:42;;;;;;;9.15;6.82;;;;;;;;;;5045618;28;20029;-52
2022/03/26 14:22:08;;;;;;;10.73;7.60;;;;;;;;;;5045458;28;20159;-53
2022/03/26 14:24:35;;;;;;;12.25;8.65;;;;;;;;;;5045098;28;20033;-49
2022/03/26 14:27:01;;;;;;;10.90;7.55;;;;;;;;;;5041571;28;20105;-51
2022/03/26 14:29:28;;;;;;;10.10;7.18;;;;;;;;;;5036182;28;20036;-52
2022/03/26 14:31:54;;;;;;;8.90;6.80;;;;;;;;;;5025786;28;20341;-52
2022/03/26 14:34:20;;;;;;;7.07;5.43;;;;;;;;;;5037526;28;20076;-50
2022/03/26 14:36:46;;;;;;;7.32;5.93;;;;;;;;;;5040129;28;20028;-50
2022/03/26 14:39:12;;;;;;;9.50;6.43;;;;;;;;;;5045470;28;20040;-49
2022/03/26 14:41:38;;;;;;;9.18;6.25;;;;;;;;;;5040998;28;20021;-50
2022/03/26 14:44:04;;;;;;;9.75;7.28;;;;;;;;;;5031712;28;20087;-52